Terminal Aerodrome Forecast
Issued by NWS Midland/Odessa, TX

Home | Current Version | Previous Version | Text Only | Print | Product List | Glossary On
Versions: 1 2 3 4 5 6 7 8 9 10 11 12 13 14 15 16 17 18 19 20 21 22 23
000
FTUS44 KMAF 292221 AAB
TAFMAF
TAF AMD
KMAF 292221Z 2922/3018 12010G16KT P6SM SCT080 SCT250
     FM300200 16006KT P6SM FEW200
     FM301600 13009G19KT P6SM SCT060 SCT250=

USA.gov is the U.S. government's official web portal to all federal, state and local government web resources and services.